JST221 YMML-YSSY
Flight info
| Callsign | JST221 |
|---|---|
| Flight time | 1h 7m |
| Altitude | 37000 |
| Route | DOSEL Y59 RIVET |
| Aircraft | A320/M-SDE3FGHIRWY/LB1 |
Departure
| Time | 2026-05-07 10:11 |
|---|---|
| Airport | Melbourne Airport (YMML) |
Arrival
| Time | 2026-05-07 11:18 |
|---|---|
| Airport | Sydney Kingsford Smith International Airport (YSSY) |
| Time | Latitude | Longitude | Altitude | Speed | Heading |
|---|---|---|---|---|---|
| 2026-05-07 09:35 | -37.67544 | 144.84696 | 379 ft | 0 kts | 172° |
| 2026-05-07 09:56 | -37.67536 | 144.84694 | 379 ft | 2 kts | 172° |
| 2026-05-07 09:57 | -37.67520 | 144.84691 | 380 ft | 2 kts | 172° |
| 2026-05-07 09:57 | -37.67504 | 144.84688 | 381 ft | 2 kts | 173° |
| 2026-05-07 09:57 | -37.67488 | 144.84684 | 381 ft | 2 kts | 152° |
| 2026-05-07 09:57 | -37.67474 | 144.84673 | 381 ft | 2 kts | 130° |
| 2026-05-07 09:58 | -37.67464 | 144.84653 | 382 ft | 3 kts | 111° |
| 2026-05-07 09:58 | -37.67456 | 144.84625 | 381 ft | 3 kts | 96° |
| 2026-05-07 09:58 | -37.67456 | 144.84596 | 381 ft | 3 kts | 77° |
| 2026-05-07 09:58 | -37.67465 | 144.84568 | 380 ft | 3 kts | 53° |
| 2026-05-07 09:59 | -37.67482 | 144.84549 | 379 ft | 3 kts | 21° |
| 2026-05-07 09:59 | -37.67505 | 144.84543 | 378 ft | 3 kts | 352° |
| 2026-05-07 09:59 | -37.67528 | 144.84547 | 377 ft | 3 kts | 353° |
| 2026-05-07 09:59 | -37.67535 | 144.84548 | 377 ft | 0 kts | 353° |
| 2026-05-07 10:02 | -37.67532 | 144.84548 | 377 ft | 1 kts | 353° |
| 2026-05-07 10:02 | -37.67515 | 144.84545 | 378 ft | 3 kts | 353° |
| 2026-05-07 10:02 | -37.67493 | 144.84538 | 379 ft | 5 kts | 336° |
| 2026-05-07 10:03 | -37.67465 | 144.84480 | 379 ft | 10 kts | 273° |
| 2026-05-07 10:03 | -37.67476 | 144.84377 | 377 ft | 12 kts | 261° |
| 2026-05-07 10:03 | -37.67423 | 144.84313 | 378 ft | 12 kts | 351° |
| 2026-05-07 10:03 | -37.67337 | 144.84295 | 381 ft | 13 kts | 351° |
| 2026-05-07 10:04 | -37.67246 | 144.84278 | 384 ft | 14 kts | 352° |
| 2026-05-07 10:04 | -37.67149 | 144.84261 | 388 ft | 15 kts | 352° |
| 2026-05-07 10:04 | -37.67049 | 144.84244 | 391 ft | 15 kts | 352° |
| 2026-05-07 10:04 | -37.66981 | 144.84232 | 394 ft | 14 kts | 351° |
| 2026-05-07 10:05 | -37.66852 | 144.84206 | 397 ft | 14 kts | 351° |
| 2026-05-07 10:05 | -37.66788 | 144.84193 | 400 ft | 14 kts | 351° |
| 2026-05-07 10:05 | -37.66693 | 144.84176 | 404 ft | 14 kts | 352° |
| 2026-05-07 10:05 | -37.66574 | 144.84189 | 409 ft | 13 kts | 36° |
| 2026-05-07 10:06 | -37.66541 | 144.84247 | 410 ft | 12 kts | 66° |
| 2026-05-07 10:06 | -37.66523 | 144.84352 | 412 ft | 13 kts | 81° |
| 2026-05-07 10:06 | -37.66508 | 144.84464 | 413 ft | 13 kts | 81° |
| 2026-05-07 10:06 | -37.66494 | 144.84583 | 414 ft | 14 kts | 81° |
| 2026-05-07 10:07 | -37.66480 | 144.84703 | 415 ft | 12 kts | 82° |
| 2026-05-07 10:07 | -37.66441 | 144.84786 | 413 ft | 11 kts | 17° |
| 2026-05-07 10:07 | -37.66415 | 144.84789 | 412 ft | 1 kts | 360° |
| 2026-05-07 10:07 | -37.66412 | 144.84789 | 411 ft | 0 kts | 359° |
| 2026-05-07 10:08 | -37.66407 | 144.84789 | 410 ft | 3 kts | 358° |
| 2026-05-07 10:08 | -37.66369 | 144.84786 | 410 ft | 7 kts | 358° |
| 2026-05-07 10:08 | -37.66354 | 144.84786 | 412 ft | 0 kts | 358° |
| 2026-05-07 10:09 | -37.66343 | 144.84785 | 407 ft | 5 kts | 358° |
| 2026-05-07 10:10 | -37.66291 | 144.84785 | 412 ft | 10 kts | 360° |
| 2026-05-07 10:10 | -37.66231 | 144.84747 | 412 ft | 11 kts | 303° |
| 2026-05-07 10:10 | -37.66217 | 144.84643 | 417 ft | 13 kts | 273° |
| 2026-05-07 10:10 | -37.66199 | 144.84316 | 413 ft | 72 kts | 273° |
| 2026-05-07 10:11 | -37.66150 | 144.83445 | 415 ft | 124 kts | 274° |
| 2026-05-07 10:11 | -37.66072 | 144.82245 | 750 ft | 140 kts | 274° |
| 2026-05-07 10:11 | -37.65995 | 144.81012 | 1426 ft | 140 kts | 273° |
| 2026-05-07 10:11 | -37.65924 | 144.79782 | 2128 ft | 139 kts | 271° |
| 2026-05-07 10:12 | -37.65852 | 144.78504 | 2508 ft | 156 kts | 270° |
| 2026-05-07 10:12 | -37.65771 | 144.77046 | 2891 ft | 176 kts | 270° |
| 2026-05-07 10:12 | -37.65681 | 144.75403 | 3268 ft | 201 kts | 270° |
| 2026-05-07 10:12 | -37.65579 | 144.73525 | 3543 ft | 226 kts | 270° |
| 2026-05-07 10:13 | -37.65466 | 144.71559 | 3549 ft | 229 kts | 270° |
| 2026-05-07 10:13 | -37.65324 | 144.69561 | 3546 ft | 231 kts | 275° |
| 2026-05-07 10:13 | -37.64802 | 144.67615 | 3765 ft | 245 kts | 292° |
| 2026-05-07 10:13 | -37.63775 | 144.65891 | 4722 ft | 253 kts | 308° |
| 2026-05-07 10:14 | -37.62301 | 144.64577 | 5591 ft | 268 kts | 328° |
| 2026-05-07 10:14 | -37.60489 | 144.63806 | 6433 ft | 279 kts | 337° |
| 2026-05-07 10:14 | -37.58608 | 144.63100 | 7186 ft | 285 kts | 337° |
| 2026-05-07 10:14 | -37.56625 | 144.62619 | 7919 ft | 299 kts | 354° |
| 2026-05-07 10:15 | -37.54533 | 144.62992 | 8649 ft | 312 kts | 17° |
| 2026-05-07 10:15 | -37.52637 | 144.64283 | 9365 ft | 320 kts | 40° |
| 2026-05-07 10:15 | -37.51144 | 144.66367 | 10115 ft | 323 kts | 56° |
| 2026-05-07 10:15 | -37.49760 | 144.68694 | 10464 ft | 343 kts | 55° |
| 2026-05-07 10:16 | -37.48282 | 144.71173 | 10652 ft | 365 kts | 55° |
| 2026-05-07 10:16 | -37.46865 | 144.73870 | 11124 ft | 373 kts | 63° |
| 2026-05-07 10:16 | -37.45562 | 144.76719 | 11741 ft | 378 kts | 62° |
| 2026-05-07 10:16 | -37.44241 | 144.79596 | 12375 ft | 383 kts | 62° |
| 2026-05-07 10:17 | -37.42895 | 144.82529 | 12997 ft | 388 kts | 62° |
| 2026-05-07 10:17 | -37.41541 | 144.85473 | 13588 ft | 393 kts | 62° |
| 2026-05-07 10:17 | -37.40160 | 144.88475 | 14176 ft | 398 kts | 62° |
| 2026-05-07 10:17 | -37.38770 | 144.91493 | 14742 ft | 401 kts | 62° |
| 2026-05-07 10:18 | -37.37366 | 144.94546 | 15326 ft | 405 kts | 62° |
| 2026-05-07 10:18 | -37.35947 | 144.97630 | 15897 ft | 408 kts | 61° |
| 2026-05-07 10:18 | -37.34515 | 145.00732 | 16444 ft | 411 kts | 61° |
| 2026-05-07 10:18 | -37.33051 | 145.03889 | 16995 ft | 415 kts | 61° |
| 2026-05-07 10:19 | -37.31592 | 145.07039 | 17550 ft | 418 kts | 61° |
| 2026-05-07 10:19 | -37.30126 | 145.10208 | 18092 ft | 422 kts | 60° |
| 2026-05-07 10:19 | -37.28645 | 145.13417 | 18636 ft | 426 kts | 60° |
| 2026-05-07 10:19 | -37.27156 | 145.16640 | 19115 ft | 429 kts | 60° |
| 2026-05-07 10:20 | -37.25648 | 145.19896 | 19592 ft | 433 kts | 60° |
| 2026-05-07 10:20 | -37.24127 | 145.23172 | 20085 ft | 436 kts | 60° |
| 2026-05-07 10:20 | -37.22590 | 145.26479 | 20585 ft | 439 kts | 59° |
| 2026-05-07 10:20 | -37.21048 | 145.29798 | 21043 ft | 442 kts | 59° |
| 2026-05-07 10:21 | -37.19492 | 145.33144 | 21477 ft | 446 kts | 59° |
| 2026-05-07 10:21 | -37.17922 | 145.36504 | 21923 ft | 449 kts | 59° |
| 2026-05-07 10:21 | -37.16302 | 145.39871 | 22368 ft | 451 kts | 54° |
| 2026-05-07 10:21 | -37.14477 | 145.43078 | 22797 ft | 454 kts | 53° |
| 2026-05-07 10:22 | -37.12630 | 145.46297 | 23247 ft | 457 kts | 53° |
| 2026-05-07 10:22 | -37.10768 | 145.49542 | 23699 ft | 459 kts | 52° |
| 2026-05-07 10:22 | -37.08899 | 145.52797 | 24083 ft | 462 kts | 52° |
| 2026-05-07 10:22 | -37.07018 | 145.56075 | 24465 ft | 464 kts | 52° |
| 2026-05-07 10:23 | -37.05131 | 145.59362 | 24840 ft | 466 kts | 52° |
| 2026-05-07 10:23 | -37.03232 | 145.62664 | 25211 ft | 468 kts | 52° |
| 2026-05-07 10:23 | -37.01328 | 145.65969 | 25589 ft | 470 kts | 52° |
| 2026-05-07 10:23 | -36.99403 | 145.69298 | 25968 ft | 472 kts | 52° |
| 2026-05-07 10:24 | -36.97477 | 145.72625 | 26330 ft | 474 kts | 52° |
| 2026-05-07 10:24 | -36.95544 | 145.75967 | 26698 ft | 476 kts | 52° |
| 2026-05-07 10:24 | -36.93593 | 145.79337 | 27051 ft | 478 kts | 52° |
| 2026-05-07 10:24 | -36.91641 | 145.82705 | 27414 ft | 480 kts | 52° |
| 2026-05-07 10:25 | -36.89676 | 145.86095 | 27779 ft | 482 kts | 52° |
| 2026-05-07 10:25 | -36.87671 | 145.89548 | 28127 ft | 484 kts | 51° |
| 2026-05-07 10:25 | -36.85721 | 145.92905 | 28487 ft | 486 kts | 51° |
| 2026-05-07 10:25 | -36.83732 | 145.96331 | 28847 ft | 489 kts | 51° |
| 2026-05-07 10:26 | -36.81731 | 145.99773 | 29206 ft | 491 kts | 51° |
| 2026-05-07 10:26 | -36.79695 | 146.03271 | 29544 ft | 493 kts | 51° |
| 2026-05-07 10:26 | -36.77672 | 146.06740 | 29894 ft | 495 kts | 51° |
| 2026-05-07 10:26 | -36.75640 | 146.10215 | 30247 ft | 496 kts | 51° |
| 2026-05-07 10:27 | -36.73602 | 146.13694 | 30667 ft | 495 kts | 51° |
| 2026-05-07 10:27 | -36.71604 | 146.17104 | 31081 ft | 494 kts | 51° |
| 2026-05-07 10:27 | -36.69556 | 146.20596 | 31504 ft | 493 kts | 51° |
| 2026-05-07 10:27 | -36.67559 | 146.23993 | 31913 ft | 492 kts | 51° |
| 2026-05-07 10:28 | -36.65543 | 146.27427 | 32317 ft | 491 kts | 51° |
| 2026-05-07 10:28 | -36.63530 | 146.30865 | 32747 ft | 490 kts | 51° |
| 2026-05-07 10:28 | -36.61496 | 146.34337 | 33168 ft | 489 kts | 51° |
| 2026-05-07 10:28 | -36.59496 | 146.37742 | 33582 ft | 488 kts | 51° |
| 2026-05-07 10:29 | -36.57496 | 146.41136 | 33993 ft | 487 kts | 51° |
| 2026-05-07 10:29 | -36.55467 | 146.44571 | 34403 ft | 485 kts | 51° |
| 2026-05-07 10:29 | -36.53472 | 146.47947 | 34750 ft | 484 kts | 51° |
| 2026-05-07 10:30 | -36.49484 | 146.54681 | 35408 ft | 482 kts | 51° |
| 2026-05-07 10:30 | -36.47496 | 146.58043 | 35717 ft | 481 kts | 51° |
| 2026-05-07 10:30 | -36.45516 | 146.61387 | 36040 ft | 480 kts | 50° |
| 2026-05-07 10:30 | -36.43534 | 146.64727 | 36354 ft | 479 kts | 50° |
| 2026-05-07 10:31 | -36.41557 | 146.68049 | 36660 ft | 478 kts | 50° |
| 2026-05-07 10:31 | -36.39579 | 146.71368 | 36963 ft | 477 kts | 50° |
| 2026-05-07 10:31 | -36.37606 | 146.74681 | 37210 ft | 477 kts | 50° |
| 2026-05-07 10:31 | -36.35633 | 146.77992 | 37268 ft | 480 kts | 50° |
| 2026-05-07 10:32 | -36.31630 | 146.84693 | 37267 ft | 484 kts | 50° |
| 2026-05-07 10:32 | -36.27596 | 146.91445 | 37262 ft | 485 kts | 50° |
| 2026-05-07 10:33 | -36.23736 | 146.97906 | 37267 ft | 485 kts | 50° |
| 2026-05-07 10:33 | -36.20389 | 147.03489 | 37264 ft | 484 kts | 50° |
| 2026-05-07 10:34 | -36.16339 | 147.10219 | 37267 ft | 485 kts | 50° |
| 2026-05-07 10:34 | -36.12304 | 147.16907 | 37280 ft | 485 kts | 50° |
| 2026-05-07 10:35 | -36.08270 | 147.23588 | 37277 ft | 484 kts | 50° |
| 2026-05-07 10:35 | -36.06260 | 147.26919 | 36942 ft | 482 kts | 50° |
| 2026-05-07 10:35 | -36.04259 | 147.30234 | 36356 ft | 482 kts | 50° |
| 2026-05-07 10:36 | -36.02249 | 147.33557 | 35745 ft | 483 kts | 50° |
| 2026-05-07 10:36 | -36.00206 | 147.36928 | 35123 ft | 485 kts | 50° |
| 2026-05-07 10:36 | -35.98206 | 147.40218 | 34520 ft | 486 kts | 50° |
| 2026-05-07 10:36 | -35.96150 | 147.43604 | 33818 ft | 487 kts | 50° |
| 2026-05-07 10:37 | -35.94137 | 147.46914 | 33367 ft | 487 kts | 50° |
| 2026-05-07 10:37 | -35.92098 | 147.50259 | 33233 ft | 490 kts | 50° |
| 2026-05-07 10:37 | -35.87991 | 147.56993 | 33271 ft | 492 kts | 50° |
| 2026-05-07 10:38 | -35.83877 | 147.63726 | 33267 ft | 491 kts | 50° |
| 2026-05-07 10:38 | -35.79741 | 147.70485 | 33267 ft | 491 kts | 50° |
| 2026-05-07 10:39 | -35.75653 | 147.77144 | 33266 ft | 490 kts | 50° |
| 2026-05-07 10:39 | -35.71537 | 147.83859 | 33270 ft | 490 kts | 50° |
| 2026-05-07 10:40 | -35.67437 | 147.90535 | 33266 ft | 489 kts | 50° |
| 2026-05-07 10:40 | -35.63332 | 147.97199 | 33274 ft | 488 kts | 50° |
| 2026-05-07 10:41 | -35.59218 | 148.03850 | 33266 ft | 488 kts | 49° |
| 2026-05-07 10:41 | -35.55110 | 148.10482 | 33265 ft | 487 kts | 50° |
| 2026-05-07 10:42 | -35.51004 | 148.17109 | 33257 ft | 488 kts | 49° |
| 2026-05-07 10:42 | -35.46893 | 148.23730 | 33260 ft | 487 kts | 49° |
| 2026-05-07 10:43 | -35.42782 | 148.30338 | 33274 ft | 487 kts | 49° |
| 2026-05-07 10:43 | -35.38663 | 148.36934 | 33265 ft | 487 kts | 49° |
| 2026-05-07 10:44 | -35.34532 | 148.43530 | 33260 ft | 487 kts | 49° |
| 2026-05-07 10:44 | -35.30409 | 148.50107 | 33255 ft | 487 kts | 49° |
| 2026-05-07 10:45 | -35.26277 | 148.56698 | 33252 ft | 488 kts | 49° |
| 2026-05-07 10:45 | -35.22147 | 148.63281 | 33254 ft | 488 kts | 49° |
| 2026-05-07 10:46 | -35.18005 | 148.69856 | 33246 ft | 488 kts | 49° |
| 2026-05-07 10:46 | -35.13837 | 148.76457 | 33243 ft | 488 kts | 49° |
| 2026-05-07 10:47 | -35.09689 | 148.83026 | 33237 ft | 488 kts | 49° |
| 2026-05-07 10:47 | -35.05652 | 148.89401 | 33238 ft | 487 kts | 49° |
| 2026-05-07 10:48 | -35.01511 | 148.95932 | 33234 ft | 487 kts | 49° |
| 2026-05-07 10:48 | -34.97355 | 149.02482 | 33238 ft | 486 kts | 49° |
| 2026-05-07 10:49 | -34.93141 | 149.09103 | 33227 ft | 505 kts | 55° |
| 2026-05-07 10:49 | -34.88819 | 149.15879 | 33236 ft | 517 kts | 54° |
| 2026-05-07 10:50 | -34.84336 | 149.22870 | 33240 ft | 518 kts | 54° |
| 2026-05-07 10:50 | -34.79936 | 149.29724 | 32431 ft | 514 kts | 54° |
| 2026-05-07 10:51 | -34.77727 | 149.33173 | 31642 ft | 517 kts | 54° |
| 2026-05-07 10:51 | -34.75515 | 149.36625 | 30991 ft | 517 kts | 54° |
| 2026-05-07 10:51 | -34.73491 | 149.40201 | 30395 ft | 511 kts | 64° |
| 2026-05-07 10:51 | -34.71826 | 149.43994 | 29748 ft | 507 kts | 66° |
| 2026-05-07 10:52 | -34.70184 | 149.47770 | 29174 ft | 504 kts | 66° |
| 2026-05-07 10:52 | -34.68546 | 149.51521 | 28521 ft | 501 kts | 66° |
| 2026-05-07 10:52 | -34.66925 | 149.55230 | 28068 ft | 495 kts | 66° |
| 2026-05-07 10:52 | -34.65316 | 149.58909 | 27556 ft | 491 kts | 66° |
| 2026-05-07 10:53 | -34.63717 | 149.62561 | 27030 ft | 487 kts | 66° |
| 2026-05-07 10:53 | -34.62150 | 149.66129 | 26578 ft | 482 kts | 66° |
| 2026-05-07 10:53 | -34.60581 | 149.69701 | 26119 ft | 477 kts | 66° |
| 2026-05-07 10:53 | -34.59025 | 149.73247 | 25660 ft | 473 kts | 66° |
| 2026-05-07 10:54 | -34.57484 | 149.76757 | 25202 ft | 470 kts | 66° |
| 2026-05-07 10:54 | -34.55950 | 149.80237 | 24757 ft | 467 kts | 66° |
| 2026-05-07 10:54 | -34.54425 | 149.83699 | 24306 ft | 464 kts | 66° |
| 2026-05-07 10:54 | -34.52913 | 149.87137 | 23837 ft | 462 kts | 65° |
| 2026-05-07 10:55 | -34.51412 | 149.90546 | 23319 ft | 460 kts | 66° |
| 2026-05-07 10:55 | -34.49901 | 149.93974 | 22829 ft | 457 kts | 66° |
| 2026-05-07 10:55 | -34.48406 | 149.97359 | 22346 ft | 453 kts | 66° |
| 2026-05-07 10:55 | -34.46923 | 150.00712 | 21836 ft | 451 kts | 66° |
| 2026-05-07 10:56 | -34.45444 | 150.04047 | 21350 ft | 448 kts | 66° |
| 2026-05-07 10:56 | -34.43969 | 150.07360 | 20933 ft | 444 kts | 66° |
| 2026-05-07 10:56 | -34.42506 | 150.10647 | 20463 ft | 441 kts | 67° |
| 2026-05-07 10:56 | -34.41057 | 150.13911 | 19934 ft | 440 kts | 67° |
| 2026-05-07 10:57 | -34.39623 | 150.17139 | 19614 ft | 433 kts | 68° |
| 2026-05-07 10:57 | -34.38194 | 150.20350 | 19144 ft | 431 kts | 68° |
| 2026-05-07 10:57 | -34.36781 | 150.23523 | 18709 ft | 427 kts | 68° |
| 2026-05-07 10:57 | -34.35378 | 150.26673 | 18246 ft | 424 kts | 68° |
| 2026-05-07 10:58 | -34.33980 | 150.29804 | 17759 ft | 420 kts | 68° |
| 2026-05-07 10:58 | -34.32596 | 150.32896 | 17267 ft | 416 kts | 69° |
| 2026-05-07 10:58 | -34.31225 | 150.35958 | 16761 ft | 412 kts | 69° |
| 2026-05-07 10:58 | -34.29870 | 150.38995 | 16297 ft | 408 kts | 69° |
| 2026-05-07 10:59 | -34.28515 | 150.42039 | 15854 ft | 404 kts | 69° |
| 2026-05-07 10:59 | -34.27187 | 150.45013 | 15408 ft | 400 kts | 69° |
| 2026-05-07 10:59 | -34.25872 | 150.47953 | 14987 ft | 396 kts | 69° |
| 2026-05-07 10:59 | -34.24570 | 150.50869 | 14548 ft | 392 kts | 69° |
| 2026-05-07 11:00 | -34.23281 | 150.53750 | 14082 ft | 386 kts | 69° |
| 2026-05-07 11:00 | -34.22008 | 150.56587 | 13249 ft | 381 kts | 68° |
| 2026-05-07 11:00 | -34.20757 | 150.59368 | 12518 ft | 373 kts | 67° |
| 2026-05-07 11:00 | -34.19532 | 150.62088 | 11900 ft | 362 kts | 66° |
| 2026-05-07 11:01 | -34.18413 | 150.64564 | 11567 ft | 346 kts | 65° |
| 2026-05-07 11:01 | -34.17287 | 150.67062 | 11171 ft | 334 kts | 65° |
| 2026-05-07 11:01 | -34.16197 | 150.69488 | 10775 ft | 323 kts | 65° |
| 2026-05-07 11:01 | -34.15132 | 150.71857 | 10395 ft | 312 kts | 64° |
| 2026-05-07 11:02 | -34.14152 | 150.74038 | 10167 ft | 306 kts | 64° |
| 2026-05-07 11:02 | -34.13101 | 150.76385 | 10059 ft | 309 kts | 64° |
| 2026-05-07 11:02 | -34.12062 | 150.78704 | 9711 ft | 312 kts | 64° |
| 2026-05-07 11:02 | -34.11041 | 150.80981 | 9364 ft | 310 kts | 64° |
| 2026-05-07 11:03 | -34.10016 | 150.83257 | 9016 ft | 309 kts | 63° |
| 2026-05-07 11:03 | -34.08994 | 150.85522 | 8683 ft | 307 kts | 64° |
| 2026-05-07 11:03 | -34.08076 | 150.87869 | 8318 ft | 304 kts | 75° |
| 2026-05-07 11:03 | -34.07470 | 150.90271 | 7964 ft | 303 kts | 77° |
| 2026-05-07 11:04 | -34.06897 | 150.92711 | 7602 ft | 302 kts | 78° |
| 2026-05-07 11:04 | -34.06511 | 150.94357 | 7368 ft | 302 kts | 78° |
| 2026-05-07 11:04 | -34.05939 | 150.96788 | 7021 ft | 302 kts | 78° |
| 2026-05-07 11:04 | -34.05360 | 150.99222 | 6666 ft | 301 kts | 78° |
| 2026-05-07 11:05 | -34.04788 | 151.01596 | 6302 ft | 292 kts | 78° |
| 2026-05-07 11:05 | -34.04220 | 151.03918 | 6029 ft | 288 kts | 78° |
| 2026-05-07 11:05 | -34.03647 | 151.06245 | 6008 ft | 290 kts | 78° |
| 2026-05-07 11:05 | -34.03072 | 151.08580 | 6007 ft | 290 kts | 78° |
| 2026-05-07 11:06 | -34.02497 | 151.10912 | 6007 ft | 290 kts | 78° |
| 2026-05-07 11:06 | -34.01922 | 151.13247 | 6009 ft | 291 kts | 78° |
| 2026-05-07 11:06 | -34.01348 | 151.15573 | 5882 ft | 289 kts | 78° |
| 2026-05-07 11:06 | -34.00779 | 151.17889 | 5576 ft | 288 kts | 78° |
| 2026-05-07 11:07 | -34.00212 | 151.20160 | 5444 ft | 279 kts | 78° |
| 2026-05-07 11:07 | -33.99657 | 151.22365 | 5311 ft | 271 kts | 78° |
| 2026-05-07 11:07 | -33.99113 | 151.24523 | 5084 ft | 267 kts | 78° |
| 2026-05-07 11:07 | -33.98575 | 151.26655 | 4770 ft | 266 kts | 78° |
| 2026-05-07 11:08 | -33.98034 | 151.28784 | 4509 ft | 264 kts | 78° |
| 2026-05-07 11:08 | -33.97502 | 151.30847 | 4368 ft | 250 kts | 78° |
| 2026-05-07 11:08 | -33.96993 | 151.32787 | 4207 ft | 239 kts | 78° |
| 2026-05-07 11:08 | -33.96494 | 151.34682 | 3951 ft | 236 kts | 78° |
| 2026-05-07 11:09 | -33.95996 | 151.36599 | 3432 ft | 243 kts | 78° |
| 2026-05-07 11:09 | -33.95490 | 151.38549 | 3047 ft | 242 kts | 78° |
| 2026-05-07 11:09 | -33.94986 | 151.40516 | 3007 ft | 249 kts | 78° |
| 2026-05-07 11:09 | -33.94476 | 151.42517 | 3009 ft | 250 kts | 78° |
| 2026-05-07 11:10 | -33.93967 | 151.44512 | 3004 ft | 242 kts | 78° |
| 2026-05-07 11:10 | -33.93443 | 151.46373 | 2998 ft | 230 kts | 66° |
| 2026-05-07 11:10 | -33.92386 | 151.47760 | 3029 ft | 216 kts | 21° |
| 2026-05-07 11:10 | -33.90950 | 151.48099 | 3336 ft | 214 kts | 345° |
| 2026-05-07 11:11 | -33.89656 | 151.47480 | 3256 ft | 193 kts | 312° |
| 2026-05-07 11:11 | -33.88605 | 151.46481 | 3264 ft | 188 kts | 301° |
| 2026-05-07 11:11 | -33.87934 | 151.45218 | 3261 ft | 173 kts | 285° |
| 2026-05-07 11:11 | -33.87427 | 151.43933 | 3262 ft | 167 kts | 281° |
| 2026-05-07 11:12 | -33.87372 | 151.42679 | 3259 ft | 144 kts | 236° |
| 2026-05-07 11:12 | -33.88080 | 151.41867 | 3265 ft | 142 kts | 220° |
| 2026-05-07 11:12 | -33.88518 | 151.40841 | 3271 ft | 148 kts | 255° |
| 2026-05-07 11:12 | -33.88735 | 151.39643 | 3276 ft | 144 kts | 240° |
| 2026-05-07 11:13 | -33.89087 | 151.38492 | 3268 ft | 146 kts | 246° |
| 2026-05-07 11:13 | -33.89386 | 151.37329 | 3165 ft | 145 kts | 246° |
| 2026-05-07 11:13 | -33.89673 | 151.36166 | 3010 ft | 143 kts | 247° |
| 2026-05-07 11:13 | -33.89943 | 151.35046 | 2847 ft | 133 kts | 247° |
| 2026-05-07 11:14 | -33.90184 | 151.34032 | 2679 ft | 120 kts | 246° |
| 2026-05-07 11:14 | -33.90410 | 151.33087 | 2518 ft | 116 kts | 246° |
| 2026-05-07 11:14 | -33.90628 | 151.32176 | 2362 ft | 114 kts | 248° |
| 2026-05-07 11:14 | -33.90847 | 151.31257 | 2210 ft | 114 kts | 249° |
| 2026-05-07 11:15 | -33.91069 | 151.30326 | 2053 ft | 114 kts | 249° |
| 2026-05-07 11:15 | -33.91287 | 151.29409 | 1896 ft | 113 kts | 250° |
| 2026-05-07 11:15 | -33.91498 | 151.28518 | 1748 ft | 112 kts | 249° |
| 2026-05-07 11:15 | -33.91713 | 151.27613 | 1587 ft | 113 kts | 251° |
| 2026-05-07 11:16 | -33.91931 | 151.26696 | 1428 ft | 114 kts | 251° |
| 2026-05-07 11:16 | -33.92152 | 151.25762 | 1270 ft | 116 kts | 250° |
| 2026-05-07 11:16 | -33.92373 | 151.24831 | 1105 ft | 119 kts | 250° |
| 2026-05-07 11:16 | -33.92602 | 151.23863 | 942 ft | 120 kts | 253° |
| 2026-05-07 11:17 | -33.92828 | 151.22907 | 765 ft | 119 kts | 254° |
| 2026-05-07 11:17 | -33.93060 | 151.21930 | 596 ft | 122 kts | 255° |
| 2026-05-07 11:17 | -33.93296 | 151.20936 | 412 ft | 126 kts | 255° |
| 2026-05-07 11:17 | -33.93540 | 151.19921 | 265 ft | 125 kts | 256° |
| 2026-05-07 11:18 | -33.93778 | 151.18918 | 55 ft | 124 kts | 257° |
| 2026-05-07 11:18 | -33.93980 | 151.18002 | 24 ft | 77 kts | 255° |
| 2026-05-07 11:18 | -33.94088 | 151.17565 | 22 ft | 42 kts | 254° |
| 2026-05-07 11:18 | -33.94148 | 151.17321 | 22 ft | 18 kts | 255° |
| 2026-05-07 11:19 | -33.94094 | 151.17251 | 21 ft | 14 kts | 349° |
| 2026-05-07 11:19 | -33.94017 | 151.17235 | 21 ft | 2 kts | 351° |
| 2026-05-07 11:19 | -33.94004 | 151.17233 | 21 ft | 3 kts | 351° |
| 2026-05-07 11:19 | -33.93986 | 151.17229 | 22 ft | 0 kts | 352° |
| 2026-05-07 11:20 | -33.93985 | 151.17229 | 21 ft | 1 kts | 352° |
| 2026-05-07 11:20 | -33.93973 | 151.17241 | 20 ft | 4 kts | 49° |
| 2026-05-07 11:20 | -33.93959 | 151.17288 | 20 ft | 9 kts | 73° |
| 2026-05-07 11:20 | -33.93938 | 151.17379 | 19 ft | 13 kts | 75° |
| 2026-05-07 11:21 | -33.93911 | 151.17497 | 20 ft | 16 kts | 75° |
| 2026-05-07 11:21 | -33.93883 | 151.17589 | 21 ft | 8 kts | 44° |
| 2026-05-07 11:21 | -33.93816 | 151.17585 | 21 ft | 12 kts | 345° |
| 2026-05-07 11:21 | -33.93726 | 151.17566 | 21 ft | 14 kts | 348° |
| 2026-05-07 11:22 | -33.93647 | 151.17598 | 23 ft | 12 kts | 38° |
| 2026-05-07 11:22 | -33.93575 | 151.17611 | 23 ft | 12 kts | 349° |
| 2026-05-07 11:22 | -33.93483 | 151.17587 | 22 ft | 15 kts | 350° |
| 2026-05-07 11:22 | -33.93422 | 151.17593 | 27 ft | 3 kts | 12° |
| 2026-05-07 11:23 | -33.93397 | 151.17610 | 30 ft | 6 kts | 50° |
| 2026-05-07 11:23 | -33.93407 | 151.17660 | 30 ft | 8 kts | 108° |
| 2026-05-07 11:23 | -33.93412 | 151.17709 | 30 ft | 2 kts | 96° |